createdAt,value
2023-03-04T00:01:58.721Z,3.10
2023-03-04T00:04:30.423Z,5.90
2023-03-04T00:07:01.156Z,4.20
2023-03-04T00:09:32.861Z,4.10
2023-03-04T00:12:02.508Z,3.67
2023-03-04T00:14:31.838Z,2.30
2023-03-04T00:17:07.118Z,3.57
2023-03-04T00:19:40.960Z,3.60
2023-03-04T00:22:13.032Z,3.70
2023-03-04T00:24:43.675Z,2.40
2023-03-04T00:27:16.491Z,3.13
2023-03-04T00:29:50.362Z,3.10
2023-03-04T00:32:21.520Z,3.60
2023-03-04T00:34:53.065Z,2.83
2023-03-04T00:37:23.377Z,3.30
2023-03-04T00:39:54.821Z,3.13
2023-03-04T00:45:12.336Z,2.90
2023-03-04T00:47:39.564Z,2.80
2023-03-04T00:50:10.034Z,3.03
2023-03-04T00:52:40.996Z,2.13
2023-03-04T00:55:12.835Z,3.40
2023-03-04T00:57:43.186Z,4.63
2023-03-04T01:00:27.592Z,3.17
2023-03-04T01:02:58.217Z,3.33
2023-03-04T01:05:28.787Z,3.30
2023-03-04T01:08:00.548Z,3.80
2023-03-04T01:10:29.616Z,2.77
2023-03-04T01:13:00.134Z,4.70
2023-03-04T01:15:27.260Z,3.70
2023-03-04T01:17:59.768Z,3.20
2023-03-04T01:20:28.255Z,7.23
2023-03-04T01:22:58.085Z,3.03
2023-03-04T01:25:27.315Z,4.20
2023-03-04T01:27:58.873Z,3.73
2023-03-04T01:30:34.016Z,2.07
2023-03-04T01:33:03.342Z,3.60
2023-03-04T01:35:33.686Z,2.63
2023-03-04T01:38:05.118Z,3.13
2023-03-04T01:40:37.312Z,4.30
2023-03-04T01:43:06.713Z,4.30
2023-03-04T01:45:40.172Z,3.53
2023-03-04T01:48:15.892Z,2.87
2023-03-04T01:50:45.238Z,2.20
2023-03-04T01:53:31.221Z,4.37
2023-03-04T01:56:16.535Z,3.23
2023-03-04T01:58:46.079Z,2.93
2023-03-04T02:01:20.781Z,2.17
2023-03-04T02:03:54.762Z,4.73
2023-03-04T02:06:24.978Z,2.87
2023-03-04T02:08:54.777Z,3.47
2023-03-04T02:11:24.305Z,4.13
2023-03-04T02:13:56.211Z,2.57
2023-03-04T02:16:26.672Z,4.43
2023-03-04T02:18:58.950Z,3.47
2023-03-04T02:21:38.615Z,3.50
2023-03-04T02:24:32.064Z,2.97
2023-03-04T02:27:05.515Z,3.77
2023-03-04T02:29:35.772Z,4.13
2023-03-04T02:32:02.857Z,1.73
2023-03-04T02:34:36.225Z,2.47
2023-03-04T02:37:07.024Z,3.33
2023-03-04T02:39:48.660Z,3.30
2023-03-04T02:42:19.297Z,3.20
2023-03-04T02:44:52.171Z,3.00
2023-03-04T02:47:27.471Z,2.67
2023-03-04T02:49:57.136Z,2.80
2023-03-04T02:52:28.989Z,4.17
2023-03-04T02:55:00.875Z,4.30
2023-03-04T02:57:31.524Z,4.17
2023-03-04T03:00:02.483Z,4.33
2023-03-04T03:02:30.566Z,5.43
2023-03-04T03:04:59.915Z,3.27
2023-03-04T03:07:26.949Z,1.87
2023-03-04T03:09:56.429Z,4.33
2023-03-04T03:12:27.861Z,3.13
2023-03-04T03:14:56.714Z,1.97
2023-03-04T03:17:27.021Z,1.93
2023-03-04T03:19:55.122Z,2.93
2023-03-04T03:22:23.330Z,2.83
2023-03-04T03:24:55.257Z,3.40
2023-03-04T03:27:23.212Z,3.27
2023-03-04T03:29:52.925Z,4.60
2023-03-04T03:32:27.738Z,3.87
2023-03-04T03:34:56.814Z,3.93
2023-03-04T03:37:28.055Z,2.80
2023-03-04T03:39:55.416Z,2.73
2023-03-04T03:45:12.413Z,1.73
2023-03-04T03:50:28.998Z,3.33
2023-03-04T03:55:40.194Z,4.80
2023-03-04T03:58:11.617Z,7.30
2023-03-04T04:00:42.868Z,3.20
2023-03-04T04:03:18.470Z,3.33
2023-03-04T04:05:49.029Z,2.10
2023-03-04T04:08:19.264Z,2.10
2023-03-04T04:10:53.502Z,4.30
2023-03-04T04:13:25.312Z,5.40
2023-03-04T04:15:55.865Z,3.93
2023-03-04T04:18:28.681Z,2.30
2023-03-04T04:21:01.434Z,2.53
2023-03-04T04:23:30.268Z,2.03
2023-03-04T04:26:02.102Z,2.10
2023-03-04T04:28:29.950Z,2.33
2023-03-04T04:31:00.586Z,3.30
2023-03-04T04:33:32.016Z,1.73
2023-03-04T04:36:02.235Z,2.60
2023-03-04T04:38:30.058Z,5.23
2023-03-04T04:41:01.841Z,1.70
2023-03-04T04:43:30.650Z,2.37
2023-03-04T04:46:03.395Z,3.73
2023-03-04T04:48:34.487Z,2.60
2023-03-04T04:51:03.581Z,3.03
2023-03-04T04:53:35.008Z,4.63
2023-03-04T04:56:29.273Z,2.53
2023-03-04T04:59:07.082Z,2.37
2023-03-04T05:01:39.755Z,2.40
2023-03-04T05:06:54.440Z,4.43
2023-03-04T05:09:28.682Z,2.80
2023-03-04T05:11:58.577Z,2.77
2023-03-04T05:14:28.636Z,4.17
2023-03-04T05:17:01.793Z,2.17
2023-03-04T05:19:32.372Z,2.30
2023-03-04T05:22:03.333Z,2.10
2023-03-04T05:24:32.413Z,4.30
2023-03-04T05:27:05.633Z,2.07
2023-03-04T05:29:34.009Z,3.23
2023-03-04T05:32:03.307Z,2.13
2023-03-04T05:34:31.388Z,2.50
2023-03-04T05:37:03.225Z,2.57
2023-03-04T05:39:31.431Z,1.73
2023-03-04T05:41:58.242Z,2.47
2023-03-04T05:44:28.536Z,3.07
2023-03-04T05:46:58.737Z,2.80
2023-03-04T05:49:28.142Z,2.33
2023-03-04T05:51:56.375Z,2.60
2023-03-04T05:54:28.118Z,3.67
2023-03-04T05:56:55.176Z,2.60
2023-03-04T05:59:26.948Z,5.00
2023-03-04T06:01:56.343Z,2.70
2023-03-04T06:04:24.569Z,3.17
2023-03-04T06:06:55.989Z,3.13
2023-03-04T06:09:30.312Z,6.17
2023-03-04T06:11:58.711Z,2.70
2023-03-04T06:14:29.998Z,2.47
2023-03-04T06:16:59.059Z,1.57
2023-03-04T06:19:28.743Z,3.53
2023-03-04T06:21:59.495Z,1.20
2023-03-04T06:24:31.554Z,3.23
2023-03-04T06:27:01.429Z,2.27
2023-03-04T06:29:28.834Z,1.80
2023-03-04T06:31:55.728Z,1.97
2023-03-04T06:34:26.910Z,2.43
2023-03-04T06:36:58.526Z,3.37
2023-03-04T06:39:29.589Z,3.40
2023-03-04T06:41:59.156Z,3.27
2023-03-04T06:44:27.847Z,1.63
2023-03-04T06:46:59.522Z,2.83
2023-03-04T06:49:30.075Z,2.23
2023-03-04T06:52:02.385Z,2.53
2023-03-04T06:54:31.661Z,2.23
2023-03-04T06:57:02.081Z,2.53
2023-03-04T06:59:31.185Z,0.83
2023-03-04T07:02:00.126Z,2.97
2023-03-04T07:04:31.275Z,1.47
2023-03-04T07:07:02.958Z,1.23
2023-03-04T07:09:30.441Z,3.77
2023-03-04T07:11:59.476Z,2.10
2023-03-04T07:14:30.784Z,2.30
2023-03-04T07:17:02.420Z,3.13
2023-03-04T07:19:33.513Z,1.53
2023-03-04T07:22:06.805Z,2.27
2023-03-04T07:24:35.650Z,2.23
2023-03-04T07:27:06.581Z,2.00
2023-03-04T07:29:36.687Z,1.63
2023-03-04T07:32:12.725Z,2.93
2023-03-04T07:34:45.487Z,1.40
2023-03-04T07:37:17.893Z,2.23
2023-03-04T07:39:48.342Z,2.40
2023-03-04T07:42:20.096Z,2.30
2023-03-04T07:44:56.596Z,2.50
2023-03-04T07:47:26.947Z,1.70
2023-03-04T07:49:56.629Z,2.20
2023-03-04T07:52:29.156Z,2.60
2023-03-04T07:54:59.853Z,3.67
2023-03-04T07:57:28.684Z,2.10
2023-03-04T08:00:00.559Z,3.97
2023-03-04T08:02:30.956Z,1.20
2023-03-04T08:07:43.093Z,1.97
2023-03-04T08:10:16.119Z,2.13
2023-03-04T08:12:46.072Z,2.20
2023-03-04T08:15:16.762Z,2.33
2023-03-04T08:17:48.870Z,2.07
2023-03-04T08:20:18.344Z,1.40
2023-03-04T08:22:47.879Z,1.67
2023-03-04T08:25:14.894Z,1.60
2023-03-04T08:27:49.407Z,2.13
2023-03-04T08:30:19.780Z,0.93
2023-03-04T08:32:51.172Z,1.63
2023-03-04T08:35:21.495Z,1.83
2023-03-04T08:38:01.366Z,2.73
2023-03-04T08:40:30.981Z,2.33
2023-03-04T08:43:01.861Z,1.83
2023-03-04T08:45:32.161Z,1.80
2023-03-04T08:48:02.163Z,3.03
2023-03-04T08:50:39.895Z,2.50
2023-03-04T08:53:08.575Z,10.77
2023-03-04T08:55:40.611Z,22.13
2023-03-04T08:58:12.467Z,32.90
2023-03-04T09:00:43.856Z,22.60
2023-03-04T09:03:16.144Z,23.57
2023-03-04T09:05:45.703Z,31.67
2023-03-04T09:08:16.643Z,25.27
2023-03-04T09:10:45.580Z,20.13
2023-03-04T09:13:20.736Z,19.43
2023-03-04T09:15:51.392Z,13.30
2023-03-04T09:18:22.803Z,10.40
2023-03-04T09:20:52.162Z,16.00
2023-03-04T09:23:22.848Z,13.17
2023-03-04T09:25:53.853Z,10.30
2023-03-04T09:28:26.003Z,9.17
2023-03-04T09:30:57.450Z,10.40
2023-03-04T09:33:29.526Z,8.90
2023-03-04T09:36:01.767Z,7.70
2023-03-04T09:38:31.192Z,9.47
2023-03-04T09:41:11.938Z,7.60
2023-03-04T09:43:43.646Z,6.23
2023-03-04T09:46:37.507Z,14.43
2023-03-04T09:49:08.867Z,11.77
2023-03-04T09:52:18.948Z,7.23
2023-03-04T09:55:30.719Z,7.40
2023-03-04T09:58:37.656Z,7.07
2023-03-04T10:01:31.363Z,8.00
2023-03-04T10:04:26.298Z,6.73
2023-03-04T10:06:59.181Z,5.20
2023-03-04T10:10:10.466Z,7.50
2023-03-04T10:12:47.723Z,6.97
2023-03-04T10:16:00.549Z,4.83
2023-03-04T10:18:42.634Z,4.90
2023-03-04T10:21:41.179Z,5.23
2023-03-04T10:24:25.344Z,7.70
2023-03-04T10:27:00.149Z,5.83
2023-03-04T10:29:41.939Z,10.37
2023-03-04T10:32:30.364Z,2.70
2023-03-04T10:35:01.305Z,3.23
2023-03-04T10:37:51.970Z,3.50
2023-03-04T10:40:28.246Z,3.63
2023-03-04T10:43:00.260Z,2.83
2023-03-04T10:45:39.302Z,5.00
2023-03-04T10:48:31.691Z,4.00
2023-03-04T10:51:21.822Z,3.97
2023-03-04T10:54:29.937Z,5.77
2023-03-04T10:57:05.601Z,2.30
2023-03-04T10:59:55.552Z,4.40
2023-03-04T11:02:36.829Z,3.37
2023-03-04T11:05:27.456Z,2.97
2023-03-04T11:08:04.065Z,2.57
2023-03-04T11:10:43.744Z,2.43
2023-03-04T11:13:22.018Z,2.63
2023-03-04T11:15:59.458Z,3.40
2023-03-04T11:18:34.516Z,1.57
2023-03-04T11:21:06.111Z,1.47
2023-03-04T11:24:03.398Z,4.53
2023-03-04T11:26:35.510Z,1.40
2023-03-04T11:29:33.322Z,1.70
2023-03-04T11:32:23.572Z,4.97
2023-03-04T11:35:11.751Z,3.60
2023-03-04T11:38:07.851Z,1.80
2023-03-04T11:41:08.426Z,1.37
2023-03-04T11:43:45.210Z,0.97
2023-03-04T11:46:38.943Z,2.93
2023-03-04T11:49:31.848Z,2.73
2023-03-04T11:52:38.399Z,1.73
2023-03-04T11:55:25.327Z,1.70
2023-03-04T11:58:26.686Z,1.80
2023-03-04T12:01:34.319Z,1.70
2023-03-04T12:04:38.747Z,2.30
2023-03-04T12:07:41.282Z,1.53
2023-03-04T12:10:46.949Z,0.60
2023-03-04T12:13:38.984Z,1.93
2023-03-04T12:16:24.272Z,1.33
2023-03-04T12:19:22.632Z,1.10
2023-03-04T12:22:29.196Z,2.47
2023-03-04T12:25:37.104Z,1.20
2023-03-04T12:28:30.108Z,1.67
2023-03-04T12:31:19.763Z,0.93
2023-03-04T12:34:43.279Z,0.90
2023-03-04T12:37:47.807Z,2.10
2023-03-04T12:40:53.764Z,1.53
2023-03-04T12:43:59.222Z,1.07
2023-03-04T12:47:17.128Z,0.57
2023-03-04T12:50:12.671Z,0.50
2023-03-04T12:53:17.729Z,1.17
2023-03-04T12:55:50.579Z,1.33
2023-03-04T12:58:32.310Z,1.00
2023-03-04T13:01:27.407Z,1.13
2023-03-04T13:04:14.124Z,2.10
2023-03-04T13:10:01.249Z,1.47
2023-03-04T13:12:48.234Z,1.40
2023-03-04T13:15:37.563Z,2.77
2023-03-04T13:18:38.136Z,0.90
2023-03-04T13:21:25.587Z,2.20
2023-03-04T13:23:59.287Z,1.93
2023-03-04T13:26:39.637Z,1.37
2023-03-04T13:29:27.087Z,1.10
2023-03-04T13:32:22.054Z,1.00
2023-03-04T13:34:58.287Z,0.77
2023-03-04T13:37:39.747Z,0.97
2023-03-04T13:40:33.564Z,0.70
2023-03-04T13:43:34.247Z,1.90
2023-03-04T13:46:27.306Z,1.57
2023-03-04T13:49:10.331Z,1.10
2023-03-04T13:51:46.881Z,1.67
2023-03-04T13:54:19.786Z,0.70
2023-03-04T13:57:17.138Z,1.43
2023-03-04T13:59:55.872Z,2.00
2023-03-04T14:02:28.133Z,1.80
2023-03-04T14:05:03.110Z,1.20
2023-03-04T14:07:39.570Z,0.40
2023-03-04T14:10:27.414Z,0.87
2023-03-04T14:15:39.627Z,2.13
2023-03-04T14:18:13.577Z,0.73
2023-03-04T14:20:50.111Z,0.60
2023-03-04T14:26:25.780Z,1.50
2023-03-04T14:29:08.194Z,1.10
2023-03-04T14:31:37.100Z,1.97
2023-03-04T14:34:09.362Z,1.73
2023-03-04T14:36:43.288Z,1.73
2023-03-04T14:39:18.946Z,0.50
2023-03-04T14:41:53.101Z,1.00
2023-03-04T14:44:49.052Z,1.07
2023-03-04T14:47:47.584Z,1.93
2023-03-04T14:50:23.806Z,0.87
2023-03-04T14:53:14.728Z,1.90
2023-03-04T14:56:10.709Z,1.23
2023-03-04T14:58:52.412Z,1.23
2023-03-04T15:01:33.299Z,2.83
2023-03-04T15:04:23.438Z,1.27
2023-03-04T15:06:58.430Z,0.93
2023-03-04T15:09:30.152Z,0.97
2023-03-04T15:12:06.828Z,0.83
2023-03-04T15:15:05.465Z,1.33
2023-03-04T15:17:51.987Z,0.77
2023-03-04T15:20:34.473Z,1.80
2023-03-04T15:23:08.479Z,1.00
2023-03-04T15:25:41.088Z,1.00
2023-03-04T15:28:22.064Z,0.77
2023-03-04T15:30:53.526Z,1.43
2023-03-04T15:33:28.123Z,1.00
2023-03-04T15:36:01.980Z,0.83
2023-03-04T15:38:34.526Z,1.13
2023-03-04T15:41:06.423Z,1.70
2023-03-04T15:43:39.160Z,1.67
2023-03-04T15:46:07.066Z,1.37
2023-03-04T15:48:37.469Z,1.43
2023-03-04T15:51:16.821Z,0.77
2023-03-04T15:54:02.576Z,1.50
2023-03-04T15:56:36.992Z,1.00
2023-03-04T15:59:16.295Z,1.17
2023-03-04T16:01:47.196Z,1.67
2023-03-04T16:04:17.128Z,1.67
2023-03-04T16:06:49.228Z,1.17
2023-03-04T16:09:23.372Z,1.43
2023-03-04T16:11:58.773Z,1.90
2023-03-04T16:14:27.511Z,1.80
2023-03-04T16:16:57.715Z,2.07
2023-03-04T16:19:28.130Z,1.60
2023-03-04T16:21:56.395Z,2.33
2023-03-04T16:27:28.283Z,1.67
2023-03-04T16:29:59.770Z,1.63
2023-03-04T16:32:32.574Z,2.37
2023-03-04T16:35:05.287Z,2.60
2023-03-04T16:37:35.605Z,2.23
2023-03-04T16:40:07.021Z,3.07
2023-03-04T16:42:33.830Z,3.87
2023-03-04T16:45:06.483Z,3.67
2023-03-04T16:47:35.339Z,2.67
2023-03-04T16:50:06.996Z,3.33
2023-03-04T16:52:38.892Z,3.93
2023-03-04T16:55:08.232Z,3.80
2023-03-04T16:57:37.586Z,3.10
2023-03-04T17:00:11.068Z,2.30
2023-03-04T17:02:45.181Z,3.67
2023-03-04T17:05:27.331Z,4.73
2023-03-04T17:07:58.102Z,2.77
2023-03-04T17:10:31.232Z,3.23
2023-03-04T17:12:59.239Z,3.43
2023-03-04T17:15:27.081Z,4.53
2023-03-04T17:20:37.509Z,4.83
2023-03-04T17:23:08.012Z,2.93
2023-03-04T17:25:39.479Z,3.67
2023-03-04T17:28:11.119Z,4.03
2023-03-04T17:30:40.637Z,4.30
2023-03-04T17:33:09.764Z,3.70
2023-03-04T17:35:42.725Z,3.67
2023-03-04T17:38:14.672Z,2.57
2023-03-04T17:40:47.074Z,2.97
2023-03-04T17:43:16.304Z,2.90
2023-03-04T17:45:47.496Z,3.03
2023-03-04T17:48:18.132Z,3.73
2023-03-04T17:50:56.377Z,2.93
2023-03-04T17:53:24.450Z,2.47
2023-03-04T17:55:56.774Z,1.90
2023-03-04T17:58:28.199Z,2.93
2023-03-04T18:01:02.849Z,4.47
2023-03-04T18:03:33.613Z,3.43
2023-03-04T18:06:05.332Z,3.03
2023-03-04T18:08:36.364Z,4.10
2023-03-04T18:11:08.774Z,6.23
2023-03-04T18:16:29.517Z,3.63
2023-03-04T18:18:58.127Z,2.53
2023-03-04T18:21:29.382Z,2.23
2023-03-04T18:24:01.050Z,4.07
2023-03-04T18:26:28.203Z,2.83
2023-03-04T18:29:00.274Z,3.23
2023-03-04T18:31:34.464Z,2.17
2023-03-04T18:34:06.819Z,3.53
2023-03-04T18:36:39.005Z,3.97
2023-03-04T18:39:10.423Z,1.97
2023-03-04T18:41:37.300Z,2.63
2023-03-04T18:44:19.478Z,3.93
2023-03-04T18:46:55.119Z,3.77
2023-03-04T18:49:27.252Z,2.00
2023-03-04T18:51:58.608Z,2.37
2023-03-04T18:54:27.775Z,3.10
2023-03-04T18:57:20.180Z,2.23
2023-03-04T19:00:03.985Z,2.10
2023-03-04T19:03:03.598Z,2.30
2023-03-04T19:05:35.668Z,2.60
2023-03-04T19:08:07.357Z,2.40
2023-03-04T19:10:39.371Z,2.57
2023-03-04T19:13:11.202Z,4.10
2023-03-04T19:15:43.484Z,2.13
2023-03-04T19:18:16.649Z,2.80
2023-03-04T19:20:47.741Z,2.23
2023-03-04T19:23:20.113Z,2.67
2023-03-04T19:25:51.906Z,3.30
2023-03-04T19:28:22.012Z,2.77
2023-03-04T19:30:57.340Z,2.03
2023-03-04T19:33:29.249Z,2.80
2023-03-04T19:35:56.200Z,1.30
2023-03-04T19:38:27.620Z,2.03
2023-03-04T19:40:59.927Z,2.20
2023-03-04T19:43:33.323Z,2.53
2023-03-04T19:46:04.807Z,3.13
2023-03-04T19:48:35.938Z,3.27
2023-03-04T19:51:25.496Z,3.90
2023-03-04T19:53:56.843Z,2.80
2023-03-04T19:56:27.467Z,2.43
2023-03-04T19:59:01.659Z,3.57
2023-03-04T20:01:35.111Z,2.23
2023-03-04T20:04:14.292Z,2.97
2023-03-04T20:06:50.100Z,1.70
2023-03-04T20:09:24.923Z,4.00
2023-03-04T20:11:59.296Z,3.17
2023-03-04T20:14:31.733Z,2.80
2023-03-04T20:17:07.521Z,3.87
2023-03-04T20:19:38.231Z,2.93
2023-03-04T20:22:12.151Z,3.10
2023-03-04T20:24:41.000Z,3.00
2023-03-04T20:27:10.707Z,1.80
2023-03-04T20:29:41.448Z,3.43
2023-03-04T20:32:12.703Z,3.30
2023-03-04T20:34:44.017Z,3.90
2023-03-04T20:37:13.315Z,2.73
2023-03-04T20:39:46.260Z,4.33
2023-03-04T20:42:16.158Z,3.57
2023-03-04T20:44:47.373Z,2.40
2023-03-04T20:47:15.765Z,2.53
2023-03-04T20:49:47.101Z,4.77
2023-03-04T20:52:19.003Z,3.37
2023-03-04T20:54:49.082Z,2.63
2023-03-04T20:57:19.414Z,2.43
2023-03-04T20:59:49.709Z,3.57
2023-03-04T21:05:10.114Z,2.83
2023-03-04T21:07:39.871Z,2.63
2023-03-04T21:10:11.982Z,3.43
2023-03-04T21:12:46.021Z,2.83
2023-03-04T21:15:15.573Z,4.27
2023-03-04T21:17:47.696Z,2.23
2023-03-04T21:20:16.219Z,2.30
2023-03-04T21:22:46.409Z,2.40
2023-03-04T21:25:14.056Z,2.93
2023-03-04T21:27:45.940Z,3.37
2023-03-04T21:30:17.853Z,3.87
2023-03-04T21:32:48.113Z,2.53
2023-03-04T21:35:19.630Z,2.50
2023-03-04T21:37:49.713Z,3.00
2023-03-04T21:40:24.158Z,2.63
2023-03-04T21:42:51.172Z,3.67
2023-03-04T21:45:24.098Z,3.90
2023-03-04T21:47:55.648Z,2.83
2023-03-04T21:50:25.832Z,2.90
2023-03-04T21:52:57.854Z,2.33
2023-03-04T21:55:29.124Z,3.53
2023-03-04T21:57:59.600Z,2.87
2023-03-04T22:00:28.471Z,3.47
2023-03-04T22:02:59.553Z,3.37
2023-03-04T22:05:29.454Z,3.10
2023-03-04T22:08:01.584Z,4.00
2023-03-04T22:10:32.328Z,5.70
2023-03-04T22:13:05.785Z,10.83
2023-03-04T22:15:33.048Z,5.03
2023-03-04T22:18:08.490Z,5.40
2023-03-04T22:20:55.455Z,3.40
2023-03-04T22:23:26.191Z,2.73
2023-03-04T22:25:55.078Z,5.03
2023-03-04T22:28:27.484Z,2.23
2023-03-04T22:30:56.490Z,3.03
2023-03-04T22:33:28.730Z,2.90
2023-03-04T22:38:55.571Z,3.83
2023-03-04T22:41:27.009Z,2.40
2023-03-04T22:46:44.394Z,4.03
2023-03-04T22:49:15.283Z,7.33
2023-03-04T22:51:43.994Z,3.60
2023-03-04T22:54:18.911Z,4.80
2023-03-04T22:56:47.411Z,7.07
2023-03-04T22:59:19.030Z,3.10
2023-03-04T23:01:53.695Z,4.77
2023-03-04T23:04:29.556Z,2.90
2023-03-04T23:07:00.631Z,3.80
2023-03-04T23:09:32.291Z,3.67
2023-03-04T23:12:01.042Z,2.67
2023-03-04T23:14:30.351Z,3.60
2023-03-04T23:17:00.911Z,2.33
2023-03-04T23:19:33.288Z,2.00
2023-03-04T23:22:05.573Z,2.73
2023-03-04T23:24:33.908Z,5.13
2023-03-04T23:27:03.060Z,2.07
2023-03-04T23:29:34.493Z,2.87
2023-03-04T23:32:06.446Z,4.50
2023-03-04T23:34:33.195Z,2.73
2023-03-04T23:37:03.040Z,2.53
2023-03-04T23:39:31.490Z,3.77
2023-03-04T23:42:03.014Z,3.90
2023-03-04T23:44:32.059Z,3.60
2023-03-04T23:47:01.120Z,3.63
2023-03-04T23:49:30.136Z,2.23
2023-03-04T23:52:01.567Z,3.27
2023-03-04T23:54:31.460Z,5.47
2023-03-04T23:57:04.306Z,5.77
2023-03-04T23:59:36.119Z,4.43
